createdAt,value
2022-09-23T00:01:12.596Z,23.02
2022-09-23T00:03:41.973Z,17.67
2022-09-23T00:06:13.317Z,20.23
2022-09-23T00:08:41.351Z,17.33
2022-09-23T00:11:14.256Z,16.05
2022-09-23T00:13:42.801Z,19.23
2022-09-23T00:16:11.928Z,21.10
2022-09-23T00:18:38.913Z,26.08
2022-09-23T00:21:08.321Z,18.80
2022-09-23T00:23:34.939Z,17.75
2022-09-23T00:26:03.840Z,16.10
2022-09-23T00:28:31.950Z,14.25
2022-09-23T00:31:06.430Z,18.55
2022-09-23T00:33:33.368Z,18.17
2022-09-23T00:36:06.233Z,18.88
2022-09-23T00:38:34.097Z,17.08
2022-09-23T00:41:01.250Z,13.80
2022-09-23T00:43:41.798Z,17.75
2022-09-23T00:46:12.140Z,16.90
2022-09-23T00:48:42.912Z,21.17
2022-09-23T00:51:17.907Z,15.98
2022-09-23T00:53:47.635Z,14.40
2022-09-23T00:56:15.441Z,17.95
2022-09-23T00:58:44.662Z,14.98
2022-09-23T01:01:14.020Z,14.43
2022-09-23T01:03:44.768Z,13.60
2022-09-23T01:06:12.414Z,12.10
2022-09-23T01:08:40.423Z,17.88
2022-09-23T01:11:16.048Z,16.95
2022-09-23T01:14:06.996Z,18.27
2022-09-23T01:16:38.214Z,16.08
2022-09-23T01:19:08.499Z,13.10
2022-09-23T01:22:24.665Z,17.27
2022-09-23T01:25:19.132Z,17.45
2022-09-23T01:28:23.781Z,17.83
2022-09-23T01:30:53.404Z,17.27
2022-09-23T01:33:34.676Z,14.73
2022-09-23T01:36:24.053Z,14.55
2022-09-23T01:38:59.686Z,18.42
2022-09-23T01:41:47.326Z,16.27
2022-09-23T01:44:30.293Z,15.60
2022-09-23T01:47:14.242Z,14.35
2022-09-23T01:49:51.784Z,15.93
2022-09-23T01:52:29.280Z,14.50
2022-09-23T01:55:06.561Z,15.02
2022-09-23T01:57:54.200Z,16.95
2022-09-23T02:00:23.069Z,20.15
2022-09-23T02:02:59.419Z,14.45
2022-09-23T02:05:30.621Z,15.45
2022-09-23T02:08:05.981Z,16.70
2022-09-23T02:10:45.641Z,13.95
2022-09-23T02:13:30.227Z,17.95
2022-09-23T02:16:01.376Z,15.88
2022-09-23T02:18:42.065Z,11.63
2022-09-23T02:21:09.929Z,12.65
2022-09-23T02:23:43.278Z,19.08
2022-09-23T02:26:28.170Z,19.48
2022-09-23T02:29:10.021Z,14.18
2022-09-23T02:31:42.517Z,16.33
2022-09-23T02:34:15.044Z,15.32
2022-09-23T02:37:06.585Z,15.50
2022-09-23T02:39:53.077Z,16.25
2022-09-23T02:42:31.824Z,14.05
2022-09-23T02:44:59.026Z,22.13
2022-09-23T02:47:31.397Z,16.63
2022-09-23T02:52:25.090Z,14.80
2022-09-23T02:54:52.689Z,17.33
2022-09-23T02:57:19.881Z,16.45
2022-09-23T02:59:46.804Z,15.90
2022-09-23T03:02:28.372Z,20.17
2022-09-23T03:05:19.027Z,20.73
2022-09-23T03:07:56.163Z,18.58
2022-09-23T03:10:28.398Z,18.70
2022-09-23T03:13:14.740Z,15.75
2022-09-23T03:16:07.976Z,16.67
2022-09-23T03:18:42.708Z,15.93
2022-09-23T03:21:22.282Z,14.82
2022-09-23T03:23:50.288Z,16.33
2022-09-23T03:26:23.765Z,12.52
2022-09-23T03:28:51.638Z,16.48
2022-09-23T03:31:18.390Z,14.52
2022-09-23T03:33:54.457Z,14.80
2022-09-23T03:36:47.709Z,14.38
2022-09-23T03:39:20.848Z,14.82
2022-09-23T03:41:52.986Z,12.75
2022-09-23T03:44:20.756Z,14.95
2022-09-23T03:46:50.482Z,15.70
2022-09-23T03:49:33.449Z,15.82
2022-09-23T03:52:00.944Z,18.65
2022-09-23T03:54:29.975Z,18.83
2022-09-23T03:56:58.362Z,18.30
2022-09-23T03:59:25.670Z,13.75
2022-09-23T04:01:52.692Z,16.85
2022-09-23T04:04:19.368Z,14.48
2022-09-23T04:06:46.173Z,13.77
2022-09-23T04:09:12.793Z,14.52
2022-09-23T04:11:39.399Z,12.00
2022-09-23T04:14:06.115Z,16.08
2022-09-23T04:16:32.943Z,14.98
2022-09-23T04:18:59.645Z,18.83
2022-09-23T04:21:27.056Z,14.57
2022-09-23T04:23:53.672Z,14.98
2022-09-23T04:26:20.273Z,16.58
2022-09-23T04:28:46.902Z,14.75
2022-09-23T04:31:13.652Z,13.32
2022-09-23T04:33:40.304Z,14.80
2022-09-23T04:36:07.309Z,16.80
2022-09-23T04:38:34.185Z,14.93
2022-09-23T04:41:00.833Z,15.52
2022-09-23T04:43:27.429Z,15.98
2022-09-23T04:46:06.040Z,15.38
2022-09-23T04:48:33.649Z,18.00
2022-09-23T04:51:08.329Z,15.48
2022-09-23T04:53:36.144Z,16.08
2022-09-23T04:56:11.726Z,15.48
2022-09-23T04:58:39.545Z,14.45
2022-09-23T05:01:24.909Z,15.48
2022-09-23T05:03:54.049Z,16.98
2022-09-23T05:06:21.701Z,14.95
2022-09-23T05:08:51.268Z,15.35
2022-09-23T05:11:18.776Z,12.57
2022-09-23T05:13:47.796Z,21.73
2022-09-23T05:16:16.419Z,13.48
2022-09-23T05:18:44.304Z,15.82
2022-09-23T05:21:12.875Z,15.13
2022-09-23T05:23:41.817Z,15.20
2022-09-23T05:26:13.763Z,17.15
2022-09-23T05:28:40.753Z,15.02
2022-09-23T05:31:20.123Z,13.35
2022-09-23T05:33:51.898Z,15.27
2022-09-23T05:36:20.690Z,18.60
2022-09-23T05:38:49.935Z,17.42
2022-09-23T05:41:19.180Z,18.98
2022-09-23T05:43:45.809Z,14.82
2022-09-23T05:46:14.910Z,17.83
2022-09-23T05:48:43.013Z,17.30
2022-09-23T05:51:13.068Z,13.43
2022-09-23T05:53:42.735Z,20.25
2022-09-23T05:56:09.323Z,22.58
2022-09-23T05:58:35.923Z,17.02
2022-09-23T06:01:12.358Z,23.10
2022-09-23T06:03:39.741Z,18.13
2022-09-23T06:06:07.661Z,18.83
2022-09-23T06:08:34.638Z,19.02
2022-09-23T06:11:07.718Z,17.10
2022-09-23T06:13:38.390Z,17.90
2022-09-23T06:16:11.765Z,18.95
2022-09-23T06:18:42.896Z,19.48
2022-09-23T06:21:12.867Z,15.18
2022-09-23T06:23:41.421Z,13.57
2022-09-23T06:26:11.922Z,13.13
2022-09-23T06:28:40.687Z,12.68
2022-09-23T06:31:17.525Z,10.52
2022-09-23T06:33:45.696Z,11.20
2022-09-23T06:36:24.113Z,10.15
2022-09-23T06:39:02.346Z,11.02
2022-09-23T06:41:29.102Z,7.45
2022-09-23T06:43:55.684Z,9.07
2022-09-23T06:46:22.283Z,10.25
2022-09-23T06:48:49.712Z,6.38
2022-09-23T06:51:19.400Z,13.23
2022-09-23T06:53:48.182Z,9.60
2022-09-23T06:56:16.717Z,10.23
2022-09-23T06:58:43.558Z,18.17
2022-09-23T07:01:19.357Z,9.15
2022-09-23T07:03:50.307Z,11.25
2022-09-23T07:06:17.758Z,8.70
2022-09-23T07:08:47.229Z,9.32
2022-09-23T07:11:15.105Z,15.98
2022-09-23T07:13:42.773Z,8.48
2022-09-23T07:16:10.950Z,13.68
2022-09-23T07:18:38.329Z,7.53
2022-09-23T07:21:07.163Z,7.72
2022-09-23T07:23:34.213Z,12.73
2022-09-23T07:26:01.255Z,8.50
2022-09-23T07:28:29.216Z,9.77
2022-09-23T07:31:00.276Z,14.75
2022-09-23T07:33:32.540Z,11.15
2022-09-23T07:38:30.227Z,11.18
2022-09-23T07:41:19.180Z,7.60
2022-09-23T07:43:46.457Z,13.57
2022-09-23T07:46:16.472Z,9.70
2022-09-23T07:48:44.574Z,7.85
2022-09-23T07:51:25.454Z,8.98
2022-09-23T07:53:53.713Z,9.40
2022-09-23T07:56:22.680Z,9.15
2022-09-23T07:59:03.784Z,8.38
2022-09-23T08:01:40.073Z,7.68
2022-09-23T08:04:15.869Z,7.03
2022-09-23T08:06:44.797Z,21.83
2022-09-23T08:09:12.224Z,7.88
2022-09-23T08:11:42.151Z,9.13
2022-09-23T08:14:10.766Z,8.57
2022-09-23T08:16:37.692Z,11.10
2022-09-23T08:21:32.516Z,5.88
2022-09-23T08:23:59.614Z,12.85
2022-09-23T08:26:27.038Z,4.97
2022-09-23T08:28:54.561Z,10.77
2022-09-23T08:31:22.852Z,7.78
2022-09-23T08:33:57.641Z,7.60
2022-09-23T08:36:25.483Z,7.30
2022-09-23T08:38:52.637Z,7.03
2022-09-23T08:41:59.060Z,7.68
2022-09-23T08:44:57.375Z,4.40
2022-09-23T08:47:52.488Z,6.15
2022-09-23T08:50:24.602Z,5.35
2022-09-23T08:55:32.638Z,5.95
2022-09-23T08:58:26.164Z,3.63
2022-09-23T09:00:59.687Z,4.20
2022-09-23T09:03:35.329Z,3.38
2022-09-23T09:06:03.117Z,3.10
2022-09-23T09:08:35.436Z,5.93
2022-09-23T09:11:03.285Z,5.22
2022-09-23T09:13:33.380Z,7.53
2022-09-23T09:16:11.475Z,3.15
2022-09-23T09:18:50.093Z,4.07
2022-09-23T09:21:16.693Z,4.00
2022-09-23T09:24:00.344Z,5.70
2022-09-23T09:26:33.305Z,10.68
2022-09-23T09:29:23.799Z,6.40
2022-09-23T09:31:57.661Z,4.28
2022-09-23T09:34:24.250Z,3.40
2022-09-23T09:37:14.802Z,3.88
2022-09-23T09:39:41.436Z,4.28
2022-09-23T09:42:20.308Z,7.22
2022-09-23T09:44:55.508Z,3.45
2022-09-23T09:47:35.981Z,2.70
2022-09-23T09:50:09.103Z,5.82
2022-09-23T09:52:44.742Z,6.35
2022-09-23T09:55:14.049Z,4.47
2022-09-23T09:57:53.670Z,2.85
2022-09-23T10:00:26.430Z,3.33
2022-09-23T10:03:19.808Z,10.85
2022-09-23T10:05:46.357Z,2.22
2022-09-23T10:08:32.443Z,2.85
2022-09-23T10:10:58.972Z,3.10
2022-09-23T10:13:27.338Z,3.00
2022-09-23T10:15:55.067Z,4.60
2022-09-23T10:18:32.594Z,1.80
2022-09-23T10:21:27.725Z,3.47
2022-09-23T10:23:58.640Z,2.22
2022-09-23T10:26:33.311Z,6.03
2022-09-23T10:29:19.582Z,6.05
2022-09-23T10:31:46.179Z,5.15
2022-09-23T10:34:28.538Z,2.72
2022-09-23T10:37:14.555Z,2.47
2022-09-23T10:39:59.735Z,6.35
2022-09-23T10:43:11.804Z,4.22
2022-09-23T10:45:58.800Z,3.38
2022-09-23T10:49:09.937Z,3.95
2022-09-23T10:51:56.767Z,2.63
2022-09-23T10:54:41.928Z,1.52
2022-09-23T10:57:46.568Z,1.70
2022-09-23T11:00:14.652Z,2.38
2022-09-23T11:03:09.494Z,1.92
2022-09-23T11:06:07.370Z,2.85
2022-09-23T11:09:04.124Z,3.75
2022-09-23T11:11:49.732Z,1.50
2022-09-23T11:14:40.283Z,2.40
2022-09-23T11:17:29.880Z,1.60
2022-09-23T11:20:15.038Z,7.03
2022-09-23T11:22:54.119Z,2.20
2022-09-23T11:25:48.382Z,1.52
2022-09-23T11:28:39.852Z,2.65
2022-09-23T11:31:21.577Z,1.77
2022-09-23T11:34:12.250Z,14.07
2022-09-23T11:36:53.637Z,4.55
2022-09-23T11:39:28.552Z,1.55
2022-09-23T11:41:59.427Z,4.25
2022-09-23T11:44:26.209Z,1.52
2022-09-23T11:47:01.665Z,1.85
2022-09-23T11:49:32.587Z,4.55
2022-09-23T11:52:11.648Z,2.60
2022-09-23T11:55:17.554Z,1.73
2022-09-23T11:57:57.484Z,2.22
2022-09-23T12:00:36.517Z,1.92
2022-09-23T12:03:42.581Z,5.18
2022-09-23T12:06:23.629Z,2.03
2022-09-23T12:08:56.951Z,4.97
2022-09-23T12:11:49.058Z,6.63
2022-09-23T12:17:07.179Z,1.85
2022-09-23T12:19:39.906Z,2.03
2022-09-23T12:22:39.189Z,1.55
2022-09-23T12:25:30.737Z,5.38
2022-09-23T12:28:04.042Z,1.60
2022-09-23T12:30:33.823Z,1.38
2022-09-23T12:33:09.647Z,1.27
2022-09-23T12:35:44.408Z,1.20
2022-09-23T12:38:41.725Z,1.58
2022-09-23T12:41:24.119Z,2.88
2022-09-23T12:43:58.632Z,3.80
2022-09-23T12:46:27.615Z,1.25
2022-09-23T12:49:03.232Z,3.38
2022-09-23T12:51:36.735Z,1.30
2022-09-23T12:54:03.322Z,1.27
2022-09-23T12:56:32.893Z,1.17
2022-09-23T12:59:02.420Z,3.80
2022-09-23T13:01:37.385Z,4.00
2022-09-23T13:04:23.151Z,2.05
2022-09-23T13:07:07.895Z,7.60
2022-09-23T13:09:41.844Z,7.22
2022-09-23T13:12:29.232Z,4.78
2022-09-23T13:15:00.795Z,2.20
2022-09-23T13:17:32.850Z,2.03
2022-09-23T13:20:04.894Z,1.33
2022-09-23T13:22:42.161Z,3.10
2022-09-23T13:25:19.522Z,1.00
2022-09-23T13:27:49.823Z,2.28
2022-09-23T13:30:25.948Z,1.52
2022-09-23T13:33:10.237Z,2.05
2022-09-23T13:35:45.828Z,1.52
2022-09-23T13:38:26.102Z,3.85
2022-09-23T13:41:00.084Z,3.78
2022-09-23T13:43:41.342Z,7.55
2022-09-23T13:46:23.586Z,3.42
2022-09-23T13:48:55.167Z,1.08
2022-09-23T13:51:33.446Z,1.95
2022-09-23T13:54:02.283Z,1.95
2022-09-23T13:56:31.878Z,5.50
2022-09-23T13:59:25.729Z,1.70
2022-09-23T14:02:13.615Z,3.42
2022-09-23T14:04:40.426Z,1.08
2022-09-23T14:07:08.605Z,2.33
2022-09-23T14:09:35.730Z,3.28
2022-09-23T14:12:05.778Z,1.05
2022-09-23T14:14:37.121Z,2.67
2022-09-23T14:17:06.413Z,7.72
2022-09-23T14:19:35.330Z,0.82
2022-09-23T14:22:02.038Z,0.85
2022-09-23T14:24:36.917Z,5.60
2022-09-23T14:27:06.560Z,8.93
2022-09-23T14:29:37.216Z,2.60
2022-09-23T14:32:12.007Z,1.85
2022-09-23T14:34:54.852Z,1.92
2022-09-23T14:37:45.981Z,1.00
2022-09-23T14:40:17.187Z,2.22
2022-09-23T14:42:52.135Z,0.85
2022-09-23T14:45:25.282Z,4.82
2022-09-23T14:47:56.857Z,1.30
2022-09-23T14:50:47.576Z,4.15
2022-09-23T14:53:18.530Z,2.15
2022-09-23T14:55:46.634Z,3.05
2022-09-23T14:58:18.218Z,1.00
2022-09-23T15:01:02.504Z,0.90
2022-09-23T15:03:29.266Z,9.02
2022-09-23T15:06:08.602Z,1.00
2022-09-23T15:08:36.041Z,1.63
2022-09-23T15:11:07.819Z,3.08
2022-09-23T15:13:40.617Z,1.10
2022-09-23T15:16:08.123Z,1.63
2022-09-23T15:18:41.239Z,2.13
2022-09-23T15:21:14.569Z,2.67
2022-09-23T15:23:41.550Z,3.03
2022-09-23T15:26:19.895Z,0.98
2022-09-23T15:28:47.984Z,2.80
2022-09-23T15:31:16.813Z,1.15
2022-09-23T15:33:50.934Z,2.00
2022-09-23T15:36:21.416Z,2.47
2022-09-23T15:38:48.605Z,1.40
2022-09-23T15:41:17.350Z,1.90
2022-09-23T15:43:44.702Z,1.35
2022-09-23T15:46:18.771Z,4.78
2022-09-23T15:49:05.090Z,3.35
2022-09-23T15:51:32.093Z,2.20
2022-09-23T15:53:58.817Z,4.05
2022-09-23T15:56:27.182Z,5.18
2022-09-23T15:58:53.939Z,3.10
2022-09-23T16:01:24.110Z,4.43
2022-09-23T16:03:50.933Z,6.55
2022-09-23T16:06:17.540Z,5.20
2022-09-23T16:08:44.117Z,4.45
2022-09-23T16:11:21.166Z,4.65
2022-09-23T16:13:47.745Z,2.83
2022-09-23T16:16:14.583Z,4.57
2022-09-23T16:18:43.788Z,1.95
2022-09-23T16:21:13.625Z,2.72
2022-09-23T16:23:47.463Z,3.50
2022-09-23T16:26:18.600Z,5.30
2022-09-23T16:28:46.941Z,3.38
2022-09-23T16:31:16.219Z,2.58
2022-09-23T16:33:44.312Z,3.85
2022-09-23T16:36:49.282Z,3.03
2022-09-23T16:39:15.925Z,4.93
2022-09-23T16:41:43.546Z,4.10
2022-09-23T16:44:12.521Z,4.15
2022-09-23T16:46:42.799Z,3.50
2022-09-23T16:49:12.164Z,3.33
2022-09-23T16:51:39.833Z,6.25
2022-09-23T16:54:11.439Z,5.30
2022-09-23T16:56:44.370Z,4.13
2022-09-23T16:59:12.766Z,4.18
2022-09-23T17:01:57.916Z,3.75
2022-09-23T17:04:24.726Z,2.97
2022-09-23T17:06:52.956Z,5.60
2022-09-23T17:09:22.029Z,5.80
2022-09-23T17:11:58.751Z,5.55
2022-09-23T17:14:25.380Z,6.13
2022-09-23T17:16:52.083Z,3.45
2022-09-23T17:19:18.674Z,10.80
2022-09-23T17:21:45.285Z,4.03
2022-09-23T17:24:11.892Z,6.38
2022-09-23T17:26:38.453Z,5.03
2022-09-23T17:29:05.669Z,6.57
2022-09-23T17:31:32.438Z,6.50
2022-09-23T17:33:59.185Z,6.22
2022-09-23T17:36:25.778Z,8.75
2022-09-23T17:38:53.608Z,7.32
2022-09-23T17:41:21.204Z,7.07
2022-09-23T17:43:48.682Z,8.32
2022-09-23T17:46:18.763Z,4.93
2022-09-23T17:48:45.996Z,7.75
2022-09-23T17:51:15.784Z,7.35
2022-09-23T17:53:45.371Z,5.97
2022-09-23T17:56:22.918Z,6.30
2022-09-23T17:58:50.155Z,5.35
2022-09-23T18:01:18.047Z,8.50
2022-09-23T18:03:45.133Z,6.22
2022-09-23T18:06:20.441Z,5.25
2022-09-23T18:08:48.993Z,5.80
2022-09-23T18:11:21.365Z,7.45
2022-09-23T18:13:56.043Z,7.25
2022-09-23T18:16:25.433Z,5.05
2022-09-23T18:19:00.317Z,7.20
2022-09-23T18:21:35.809Z,7.03
2022-09-23T18:26:50.382Z,8.25
2022-09-23T18:29:16.998Z,6.43
2022-09-23T18:31:44.467Z,7.32
2022-09-23T18:34:13.496Z,12.32
2022-09-23T18:36:40.492Z,8.02
2022-09-23T18:39:07.433Z,6.22
2022-09-23T18:41:35.127Z,8.13
2022-09-23T18:44:01.989Z,9.60
2022-09-23T18:46:30.590Z,6.22
2022-09-23T18:49:16.441Z,6.90
2022-09-23T18:51:52.341Z,6.80
2022-09-23T18:54:19.797Z,9.27
2022-09-23T18:56:46.913Z,10.02
2022-09-23T18:59:20.502Z,6.90
2022-09-23T19:01:50.097Z,10.05
2022-09-23T19:04:19.329Z,7.38
2022-09-23T19:06:46.450Z,10.00
2022-09-23T19:09:15.025Z,6.82
2022-09-23T19:11:41.825Z,8.18
2022-09-23T19:14:11.393Z,7.03
2022-09-23T19:16:39.686Z,7.68
2022-09-23T19:19:06.695Z,7.38
2022-09-23T19:21:34.168Z,6.50
2022-09-23T19:24:03.871Z,6.90
2022-09-23T19:26:36.752Z,9.50
2022-09-23T19:29:05.060Z,8.43
2022-09-23T19:31:40.580Z,11.18
2022-09-23T19:34:14.000Z,8.93
2022-09-23T19:36:43.568Z,13.88
2022-09-23T19:39:24.697Z,6.53
2022-09-23T19:41:52.617Z,9.55
2022-09-23T19:44:20.083Z,11.18
2022-09-23T19:46:53.403Z,19.13
2022-09-23T19:49:23.974Z,10.75
2022-09-23T19:51:52.953Z,11.15
2022-09-23T19:54:20.683Z,9.73
2022-09-23T19:56:49.694Z,13.00
2022-09-23T19:59:18.716Z,13.73
2022-09-23T20:01:49.408Z,10.43
2022-09-23T20:04:16.908Z,13.75
2022-09-23T20:06:43.693Z,12.40
2022-09-23T20:09:10.296Z,11.75
2022-09-23T20:11:38.207Z,19.13
2022-09-23T20:14:06.409Z,12.90
2022-09-23T20:16:35.196Z,11.85
2022-09-23T20:19:04.155Z,11.82
2022-09-23T20:21:31.416Z,11.63
2022-09-23T20:23:58.304Z,13.88
2022-09-23T20:26:43.387Z,12.95
2022-09-23T20:29:11.047Z,14.13
2022-09-23T20:31:40.599Z,13.50
2022-09-23T20:34:08.180Z,15.07
2022-09-23T20:36:35.420Z,14.20
2022-09-23T20:39:06.040Z,12.77
2022-09-23T20:41:36.725Z,13.38
2022-09-23T20:44:06.384Z,15.35
2022-09-23T20:46:34.137Z,15.43
2022-09-23T20:49:02.085Z,12.93
2022-09-23T20:51:28.799Z,16.60
2022-09-23T20:53:55.541Z,14.23
2022-09-23T20:56:22.647Z,10.75
2022-09-23T20:58:50.815Z,10.65
2022-09-23T21:01:18.265Z,13.43
2022-09-23T21:03:47.270Z,11.77
2022-09-23T21:06:16.515Z,13.40
2022-09-23T21:08:44.507Z,13.18
2022-09-23T21:11:15.039Z,17.08
2022-09-23T21:13:51.937Z,8.38
2022-09-23T21:16:22.552Z,13.30
2022-09-23T21:18:50.529Z,15.00
2022-09-23T21:21:19.525Z,12.27
2022-09-23T21:23:47.178Z,16.95
2022-09-23T21:26:21.461Z,12.05
2022-09-23T21:28:50.455Z,13.57
2022-09-23T21:31:42.469Z,13.27
2022-09-23T21:34:11.324Z,9.88
2022-09-23T21:36:41.482Z,12.20
2022-09-23T21:39:10.453Z,11.73
2022-09-23T21:41:38.141Z,12.82
2022-09-23T21:44:05.046Z,12.07
2022-09-23T21:46:35.243Z,11.85
2022-09-23T21:49:03.908Z,13.77
2022-09-23T21:51:38.626Z,13.93
2022-09-23T21:54:05.925Z,11.60
2022-09-23T21:56:36.407Z,15.38
2022-09-23T21:59:03.824Z,13.43
2022-09-23T22:01:36.336Z,13.90
2022-09-23T22:04:09.375Z,11.52
2022-09-23T22:06:38.245Z,15.68
2022-09-23T22:09:10.765Z,9.50
2022-09-23T22:11:57.475Z,11.43
2022-09-23T22:14:26.135Z,15.65
2022-09-23T22:16:59.207Z,10.63
2022-09-23T22:19:28.181Z,13.07
2022-09-23T22:21:56.182Z,11.05
2022-09-23T22:24:22.910Z,8.82
2022-09-23T22:26:51.182Z,12.60
2022-09-23T22:29:36.545Z,9.88
2022-09-23T22:32:23.737Z,13.73
2022-09-23T22:34:52.085Z,13.52
2022-09-23T22:37:34.654Z,12.32
2022-09-23T22:40:02.837Z,13.52
2022-09-23T22:42:31.001Z,12.95
2022-09-23T22:44:57.611Z,7.72
2022-09-23T22:47:24.409Z,12.00
2022-09-23T22:49:54.532Z,11.77
2022-09-23T22:52:24.574Z,9.80
2022-09-23T22:54:51.936Z,9.20
2022-09-23T22:57:19.556Z,9.73
2022-09-23T22:59:48.125Z,9.48
2022-09-23T23:02:17.061Z,10.77
2022-09-23T23:04:46.078Z,11.32
2022-09-23T23:07:17.017Z,10.10
2022-09-23T23:09:43.609Z,8.73
2022-09-23T23:12:10.182Z,7.85
2022-09-23T23:14:37.797Z,10.73
2022-09-23T23:17:07.531Z,11.13
2022-09-23T23:19:36.316Z,9.25
2022-09-23T23:22:04.033Z,10.75
2022-09-23T23:24:31.014Z,12.40
2022-09-23T23:26:57.603Z,11.13
2022-09-23T23:29:24.388Z,13.55
2022-09-23T23:31:51.297Z,11.65
2022-09-23T23:34:20.387Z,10.95
2022-09-23T23:36:54.694Z,9.30
2022-09-23T23:39:23.788Z,9.05
2022-09-23T23:41:58.010Z,13.75
2022-09-23T23:44:26.594Z,11.43
2022-09-23T23:46:54.546Z,11.45
2022-09-23T23:49:21.596Z,10.43
2022-09-23T23:51:48.270Z,10.88
2022-09-23T23:54:15.454Z,15.32
2022-09-23T23:56:42.288Z,8.77
2022-09-23T23:59:08.888Z,9.25
